createdAt,value
2023-06-25T00:01:23.919Z,100.00
2023-06-25T00:03:52.773Z,100.00
2023-06-25T00:06:23.311Z,100.00
2023-06-25T00:08:51.880Z,100.00
2023-06-25T00:11:20.337Z,100.00
2023-06-25T00:13:50.060Z,100.00
2023-06-25T00:16:18.368Z,100.00
2023-06-25T00:18:48.621Z,100.00
2023-06-25T00:21:16.983Z,100.00
2023-06-25T00:23:45.270Z,100.00
2023-06-25T00:26:14.524Z,100.00
2023-06-25T00:28:42.820Z,100.00
2023-06-25T00:31:13.882Z,100.00
2023-06-25T00:33:44.310Z,100.00
2023-06-25T00:36:12.705Z,100.00
2023-06-25T00:38:43.585Z,100.00
2023-06-25T00:41:13.230Z,100.00
2023-06-25T00:43:43.717Z,100.00
2023-06-25T00:46:17.268Z,100.00
2023-06-25T00:48:49.050Z,100.00
2023-06-25T00:51:18.676Z,100.00
2023-06-25T00:53:47.264Z,100.00
2023-06-25T00:56:16.818Z,100.00
2023-06-25T00:58:45.215Z,100.00
2023-06-25T01:01:22.558Z,100.00
2023-06-25T01:04:01.766Z,100.00
2023-06-25T01:06:35.011Z,100.00
2023-06-25T01:09:04.044Z,100.00
2023-06-25T01:11:32.412Z,100.00
2023-06-25T01:14:00.756Z,100.00
2023-06-25T01:16:30.475Z,100.00
2023-06-25T01:19:05.042Z,100.00
2023-06-25T01:21:34.322Z,100.00
2023-06-25T01:24:04.559Z,100.00
2023-06-25T01:26:32.948Z,100.00
2023-06-25T01:29:01.291Z,100.00
2023-06-25T01:31:32.960Z,100.00
2023-06-25T01:34:02.019Z,100.00
2023-06-25T01:36:30.472Z,100.00
2023-06-25T01:38:58.842Z,100.00
2023-06-25T01:41:28.570Z,100.00
2023-06-25T01:43:56.867Z,100.00
2023-06-25T01:46:25.240Z,100.00
2023-06-25T01:48:53.545Z,100.00
2023-06-25T01:51:21.868Z,100.00
2023-06-25T01:53:50.200Z,100.00
2023-06-25T01:56:18.434Z,100.00
2023-06-25T01:58:48.176Z,100.00
2023-06-25T02:01:16.615Z,100.00
2023-06-25T02:03:45.137Z,100.00
2023-06-25T02:06:13.546Z,100.00
2023-06-25T02:08:41.778Z,100.00
2023-06-25T02:11:10.291Z,100.00
2023-06-25T02:13:38.612Z,100.00
2023-06-25T02:16:08.458Z,100.00
2023-06-25T02:18:38.257Z,100.00
2023-06-25T02:21:06.859Z,100.00
2023-06-25T02:23:35.169Z,100.00
2023-06-25T02:26:03.458Z,100.00
2023-06-25T02:28:31.791Z,100.00
2023-06-25T02:31:00.166Z,100.00
2023-06-25T02:33:29.941Z,100.00
2023-06-25T02:35:58.488Z,100.00
2023-06-25T02:38:26.780Z,100.00
2023-06-25T02:40:55.120Z,100.00
2023-06-25T02:43:23.440Z,100.00
2023-06-25T02:45:51.713Z,100.00
2023-06-25T02:48:19.992Z,100.00
2023-06-25T02:50:49.862Z,100.00
2023-06-25T02:53:18.261Z,100.00
2023-06-25T02:55:46.673Z,100.00
2023-06-25T02:58:14.974Z,100.00
2023-06-25T03:00:43.438Z,100.00
2023-06-25T03:03:11.888Z,100.00
2023-06-25T03:05:40.570Z,100.00
2023-06-25T03:08:10.567Z,100.00
2023-06-25T03:10:39.406Z,100.00
2023-06-25T03:13:08.328Z,100.00
2023-06-25T03:15:37.116Z,100.00
2023-06-25T03:18:05.896Z,100.00
2023-06-25T03:20:34.290Z,100.00
2023-06-25T03:23:02.664Z,100.00
2023-06-25T03:25:32.552Z,100.00
2023-06-25T03:28:00.841Z,100.00
2023-06-25T03:30:29.274Z,100.00
2023-06-25T03:32:57.635Z,100.00
2023-06-25T03:35:25.985Z,100.00
2023-06-25T03:37:54.374Z,100.00
2023-06-25T03:40:22.705Z,100.00
2023-06-25T03:42:52.339Z,100.00
2023-06-25T03:45:20.705Z,100.00
2023-06-25T03:47:49.020Z,100.00
2023-06-25T03:50:17.494Z,100.00
2023-06-25T03:52:45.825Z,100.00
2023-06-25T03:55:14.095Z,100.00
2023-06-25T03:57:42.412Z,100.00
2023-06-25T04:00:13.357Z,100.00
2023-06-25T04:02:41.789Z,100.00
2023-06-25T04:05:10.484Z,100.00
2023-06-25T04:07:39.453Z,100.00
2023-06-25T04:10:08.423Z,100.00
2023-06-25T04:12:36.797Z,100.00
2023-06-25T04:15:05.533Z,100.00
2023-06-25T04:17:35.297Z,100.00
2023-06-25T04:20:03.523Z,100.00
2023-06-25T04:22:31.862Z,100.00
2023-06-25T04:25:00.237Z,100.00
2023-06-25T04:27:28.714Z,100.00
2023-06-25T04:29:57.077Z,100.00
2023-06-25T04:32:25.435Z,100.00
2023-06-25T04:34:55.218Z,100.00
2023-06-25T04:37:23.575Z,100.00
2023-06-25T04:39:52.059Z,100.00
2023-06-25T04:42:20.293Z,100.00
2023-06-25T04:44:48.586Z,100.00
2023-06-25T04:47:16.874Z,100.00
2023-06-25T04:49:45.100Z,100.00
2023-06-25T04:52:19.917Z,100.00
2023-06-25T04:54:48.537Z,100.00
2023-06-25T04:57:17.655Z,100.00
2023-06-25T04:59:45.919Z,100.00
2023-06-25T05:02:14.220Z,100.00
2023-06-25T05:04:44.412Z,100.00
2023-06-25T05:07:15.777Z,100.00
2023-06-25T05:09:44.233Z,100.00
2023-06-25T05:12:12.673Z,100.00
2023-06-25T05:14:42.010Z,100.00
2023-06-25T05:17:10.368Z,100.00
2023-06-25T05:19:38.715Z,100.00
2023-06-25T05:22:07.448Z,100.00
2023-06-25T05:24:37.176Z,100.00
2023-06-25T05:27:06.000Z,100.00
2023-06-25T05:29:34.338Z,100.00
2023-06-25T05:32:02.659Z,100.00
2023-06-25T05:34:30.895Z,100.00
2023-06-25T05:36:59.250Z,100.00
2023-06-25T05:39:30.385Z,100.00
2023-06-25T05:42:00.605Z,100.00
2023-06-25T05:44:29.269Z,100.00
2023-06-25T05:46:57.496Z,100.00
2023-06-25T05:49:25.820Z,100.00
2023-06-25T05:51:54.159Z,100.00
2023-06-25T05:54:22.489Z,100.00
2023-06-25T05:56:50.769Z,100.00
2023-06-25T05:59:20.481Z,100.00
2023-06-25T06:01:48.858Z,100.00
2023-06-25T06:04:20.219Z,100.00
2023-06-25T06:06:49.295Z,100.00
2023-06-25T06:09:17.653Z,100.00
2023-06-25T06:11:46.062Z,100.00
2023-06-25T06:14:14.530Z,100.00
2023-06-25T06:16:44.269Z,100.00
2023-06-25T06:19:12.671Z,100.00
2023-06-25T06:21:40.986Z,100.00
2023-06-25T06:24:09.348Z,100.00
2023-06-25T06:26:37.777Z,100.00
2023-06-25T06:29:07.301Z,100.00
2023-06-25T06:31:35.669Z,100.00
2023-06-25T06:34:05.444Z,100.00
2023-06-25T06:36:33.760Z,100.00
2023-06-25T06:39:02.039Z,100.00
2023-06-25T06:41:30.277Z,98.42
2023-06-25T06:44:12.543Z,94.99
2023-06-25T06:46:40.821Z,96.03
2023-06-25T06:49:10.836Z,96.37
2023-06-25T06:51:41.052Z,93.98
2023-06-25T06:54:09.559Z,89.25
2023-06-25T06:56:38.397Z,90.82
2023-06-25T06:59:07.043Z,91.37
2023-06-25T07:01:35.692Z,87.92
2023-06-25T07:04:04.292Z,85.25
2023-06-25T07:06:33.975Z,81.13
2023-06-25T07:09:02.805Z,82.10
2023-06-25T07:11:31.132Z,80.14
2023-06-25T07:13:59.388Z,80.03
2023-06-25T07:16:27.706Z,80.31
2023-06-25T07:18:56.086Z,83.35
2023-06-25T07:21:24.310Z,85.08
2023-06-25T07:23:54.025Z,83.19
2023-06-25T07:26:23.220Z,77.68
2023-06-25T07:28:51.435Z,79.47
2023-06-25T07:31:19.667Z,77.20
2023-06-25T07:33:47.890Z,72.59
2023-06-25T07:36:16.264Z,76.40
2023-06-25T07:38:44.556Z,77.13
2023-06-25T07:41:14.407Z,77.45
2023-06-25T07:43:42.633Z,78.82
2023-06-25T07:46:11.376Z,80.40
2023-06-25T07:48:39.725Z,77.30
2023-06-25T07:51:08.105Z,75.86
2023-06-25T07:53:36.360Z,72.86
2023-06-25T07:56:05.330Z,69.91
2023-06-25T07:58:35.658Z,67.81
2023-06-25T08:01:04.012Z,67.37
2023-06-25T08:03:32.427Z,67.64
2023-06-25T08:06:00.866Z,65.54
2023-06-25T08:08:29.120Z,64.30
2023-06-25T08:10:57.340Z,63.35
2023-06-25T08:13:25.550Z,63.58
2023-06-25T08:15:56.130Z,62.34
2023-06-25T08:18:24.467Z,61.94
2023-06-25T08:20:52.693Z,63.32
2023-06-25T08:23:20.995Z,63.47
2023-06-25T08:25:49.257Z,62.11
2023-06-25T08:28:17.492Z,64.66
2023-06-25T08:30:45.840Z,60.13
2023-06-25T08:33:15.734Z,59.68
2023-06-25T08:35:44.106Z,59.74
2023-06-25T08:38:13.664Z,56.87
2023-06-25T08:40:43.314Z,58.65
2023-06-25T08:43:11.809Z,58.84
2023-06-25T08:45:40.245Z,58.66
2023-06-25T08:48:13.982Z,58.56
2023-06-25T08:50:45.380Z,57.73
2023-06-25T08:53:13.682Z,58.08
2023-06-25T08:55:44.092Z,57.29
2023-06-25T08:58:12.301Z,56.84
2023-06-25T09:00:40.605Z,58.90
2023-06-25T09:03:08.902Z,56.38
2023-06-25T09:05:37.413Z,55.10
2023-06-25T09:08:15.464Z,55.78
2023-06-25T09:10:43.913Z,54.29
2023-06-25T09:13:13.344Z,54.48
2023-06-25T09:15:44.468Z,53.06
2023-06-25T09:18:12.708Z,52.95
2023-06-25T09:20:42.158Z,55.18
2023-06-25T09:23:11.808Z,55.42
2023-06-25T09:25:40.069Z,56.19
2023-06-25T09:28:11.871Z,58.23
2023-06-25T09:30:41.468Z,60.92
2023-06-25T09:33:10.124Z,61.42
2023-06-25T09:35:38.630Z,62.99
2023-06-25T09:38:07.666Z,65.11
2023-06-25T09:40:37.567Z,65.89
2023-06-25T09:43:08.824Z,63.23
2023-06-25T09:45:38.780Z,64.05
2023-06-25T09:48:11.569Z,63.71
2023-06-25T09:50:44.807Z,63.39
2023-06-25T09:53:18.548Z,64.34
2023-06-25T09:55:49.052Z,63.81
2023-06-25T09:58:20.005Z,66.49
2023-06-25T10:00:49.183Z,68.61
2023-06-25T10:03:18.251Z,71.91
2023-06-25T10:05:47.777Z,77.39
2023-06-25T10:08:17.112Z,73.28
2023-06-25T10:10:45.423Z,77.76
2023-06-25T10:13:15.722Z,80.12
2023-06-25T10:15:44.027Z,84.14
2023-06-25T10:18:12.344Z,75.73
2023-06-25T10:20:46.667Z,78.00
2023-06-25T10:23:15.524Z,77.01
2023-06-25T10:25:55.469Z,72.26
2023-06-25T10:28:34.276Z,71.92
2023-06-25T10:31:14.330Z,67.71
2023-06-25T10:33:44.044Z,68.68
2023-06-25T10:36:13.807Z,67.44
2023-06-25T10:38:42.331Z,69.79
2023-06-25T10:41:10.621Z,69.94
2023-06-25T10:43:40.323Z,71.02
2023-06-25T10:46:08.620Z,75.01
2023-06-25T10:48:36.860Z,73.20
2023-06-25T10:51:05.212Z,75.67
2023-06-25T10:53:33.656Z,75.35
2023-06-25T10:56:01.907Z,78.14
2023-06-25T10:58:30.246Z,76.55
2023-06-25T11:01:00.579Z,77.08
2023-06-25T11:03:29.151Z,72.92
2023-06-25T11:05:59.780Z,72.18
2023-06-25T11:08:28.010Z,73.36
2023-06-25T11:10:56.568Z,71.23
2023-06-25T11:13:24.887Z,71.91
2023-06-25T11:15:53.123Z,67.34
2023-06-25T11:18:24.837Z,65.54
2023-06-25T11:20:54.851Z,63.58
2023-06-25T11:23:23.362Z,64.74
2023-06-25T11:25:51.753Z,63.16
2023-06-25T11:28:20.030Z,63.34
2023-06-25T11:30:48.351Z,58.70
2023-06-25T11:33:18.332Z,58.56
2023-06-25T11:35:51.984Z,57.12
2023-06-25T11:38:27.609Z,59.84
2023-06-25T11:40:58.870Z,60.50
2023-06-25T11:43:28.227Z,59.09
2023-06-25T11:46:02.082Z,59.62
2023-06-25T11:48:31.017Z,61.10
2023-06-25T11:51:07.430Z,60.18
2023-06-25T11:53:36.217Z,60.52
2023-06-25T11:56:04.437Z,63.96
2023-06-25T11:58:32.739Z,61.43
2023-06-25T12:01:01.170Z,62.04
2023-06-25T12:03:31.213Z,60.03
2023-06-25T12:06:00.125Z,63.11
2023-06-25T12:08:29.857Z,63.03
2023-06-25T12:10:58.293Z,66.55
2023-06-25T12:13:26.498Z,71.57
2023-06-25T12:15:54.741Z,75.02
2023-06-25T12:18:24.222Z,78.67
2023-06-25T12:20:53.632Z,78.63
2023-06-25T12:23:21.945Z,78.50
2023-06-25T12:25:51.642Z,77.56
2023-06-25T12:28:19.918Z,79.30
2023-06-25T12:30:48.179Z,81.59
2023-06-25T12:33:16.473Z,82.11
2023-06-25T12:35:44.775Z,80.43
2023-06-25T12:38:13.013Z,81.46
2023-06-25T12:40:41.448Z,82.49
2023-06-25T12:43:11.375Z,79.88
2023-06-25T12:45:39.840Z,80.78
2023-06-25T12:48:08.374Z,83.92
2023-06-25T12:50:36.585Z,84.87
2023-06-25T12:53:04.866Z,84.56
2023-06-25T12:55:33.104Z,84.15
2023-06-25T12:58:01.410Z,84.28
2023-06-25T13:00:43.895Z,84.30
2023-06-25T13:03:20.225Z,85.64
2023-06-25T13:05:48.948Z,83.48
2023-06-25T13:08:17.194Z,82.00
2023-06-25T13:10:45.823Z,82.50
2023-06-25T13:13:14.106Z,80.16
2023-06-25T13:15:45.586Z,82.63
2023-06-25T13:18:14.124Z,81.28
2023-06-25T13:20:42.541Z,85.37
2023-06-25T13:23:10.775Z,78.91
2023-06-25T13:25:39.709Z,80.13
2023-06-25T13:28:08.076Z,80.88
2023-06-25T13:30:36.451Z,83.60
2023-06-25T13:33:07.451Z,83.91
2023-06-25T13:35:36.007Z,82.68
2023-06-25T13:38:04.536Z,80.69
2023-06-25T13:40:32.743Z,79.80
2023-06-25T13:43:02.872Z,79.59
2023-06-25T13:45:31.919Z,76.76
2023-06-25T13:48:00.216Z,77.29
2023-06-25T13:50:29.886Z,77.79
2023-06-25T13:52:58.135Z,77.55
2023-06-25T13:55:26.408Z,76.99
2023-06-25T13:57:54.802Z,72.84
2023-06-25T14:00:23.127Z,66.35
2023-06-25T14:03:03.010Z,66.51
2023-06-25T14:05:40.850Z,63.10
2023-06-25T14:08:09.572Z,65.50
2023-06-25T14:10:37.901Z,62.86
2023-06-25T14:13:06.180Z,61.76
2023-06-25T14:15:34.478Z,62.24
2023-06-25T14:18:02.817Z,62.16
2023-06-25T14:20:31.204Z,60.10
2023-06-25T14:23:01.986Z,63.04
2023-06-25T14:25:30.539Z,64.15
2023-06-25T14:27:59.710Z,64.06
2023-06-25T14:30:28.422Z,65.89
2023-06-25T14:32:56.799Z,65.49
2023-06-25T14:35:25.179Z,66.38
2023-06-25T14:37:53.478Z,64.80
2023-06-25T14:40:23.165Z,67.02
2023-06-25T14:42:51.541Z,67.41
2023-06-25T14:45:20.014Z,65.91
2023-06-25T14:47:48.399Z,67.12
2023-06-25T14:50:16.783Z,67.70
2023-06-25T14:52:45.312Z,67.76
2023-06-25T14:55:13.607Z,66.58
2023-06-25T14:57:43.554Z,67.69
2023-06-25T15:00:13.232Z,66.12
2023-06-25T15:02:41.641Z,65.48
2023-06-25T15:05:10.582Z,65.12
2023-06-25T15:07:38.845Z,66.94
2023-06-25T15:10:08.399Z,68.43
2023-06-25T15:12:36.661Z,66.86
2023-06-25T15:15:07.161Z,67.21
2023-06-25T15:17:35.608Z,67.32
2023-06-25T15:20:06.503Z,68.43
2023-06-25T15:22:35.201Z,70.82
2023-06-25T15:25:04.080Z,70.04
2023-06-25T15:27:32.351Z,71.80
2023-06-25T15:30:00.803Z,73.30
2023-06-25T15:32:30.546Z,74.51
2023-06-25T15:34:58.826Z,77.04
2023-06-25T15:37:27.122Z,79.58
2023-06-25T15:39:56.686Z,81.82
2023-06-25T15:42:25.090Z,82.00
2023-06-25T15:44:53.345Z,82.25
2023-06-25T15:47:22.736Z,83.17
2023-06-25T15:49:52.619Z,81.60
2023-06-25T15:52:20.961Z,80.43
2023-06-25T15:54:50.928Z,81.20
2023-06-25T15:57:19.509Z,80.60
2023-06-25T15:59:47.830Z,80.90
2023-06-25T16:02:16.159Z,81.44
2023-06-25T16:04:44.540Z,83.64
2023-06-25T16:07:14.950Z,89.25
2023-06-25T16:09:43.424Z,93.21
2023-06-25T16:12:11.739Z,91.73
2023-06-25T16:14:40.152Z,90.94
2023-06-25T16:17:08.542Z,91.51
2023-06-25T16:22:08.139Z,95.79
2023-06-25T16:24:38.099Z,93.36
2023-06-25T16:27:07.115Z,96.68
2023-06-25T16:29:35.524Z,93.02
2023-06-25T16:32:03.898Z,97.50
2023-06-25T16:34:32.270Z,100.00
2023-06-25T16:37:01.429Z,100.00
2023-06-25T16:39:29.729Z,100.00
2023-06-25T16:41:59.418Z,100.00
2023-06-25T16:44:27.676Z,100.00
2023-06-25T16:46:56.139Z,100.00
2023-06-25T16:49:24.556Z,100.00
2023-06-25T16:51:53.803Z,100.00
2023-06-25T16:54:22.201Z,100.00
2023-06-25T16:56:50.528Z,100.00
2023-06-25T16:59:20.308Z,100.00
2023-06-25T17:01:48.664Z,100.00
2023-06-25T17:04:17.342Z,100.00
2023-06-25T17:06:46.508Z,100.00
2023-06-25T17:09:14.763Z,100.00
2023-06-25T17:11:43.050Z,100.00
2023-06-25T17:14:11.400Z,100.00
2023-06-25T17:16:41.133Z,100.00
2023-06-25T17:19:09.504Z,100.00
2023-06-25T17:21:37.782Z,100.00
2023-06-25T17:24:06.328Z,100.00
2023-06-25T17:26:34.760Z,100.00
2023-06-25T17:29:04.869Z,100.00
2023-06-25T17:31:33.260Z,100.00
2023-06-25T17:34:03.054Z,100.00
2023-06-25T17:36:32.988Z,100.00
2023-06-25T17:39:01.604Z,100.00
2023-06-25T17:41:30.000Z,100.00
2023-06-25T17:43:58.477Z,100.00
2023-06-25T17:46:26.865Z,100.00
2023-06-25T17:48:56.218Z,100.00
2023-06-25T17:51:26.651Z,100.00
2023-06-25T17:53:54.957Z,100.00
2023-06-25T17:56:24.034Z,100.00
2023-06-25T17:58:52.277Z,100.00
2023-06-25T18:01:20.763Z,100.00
2023-06-25T18:03:49.179Z,100.00
2023-06-25T18:06:17.672Z,100.00
2023-06-25T18:08:47.402Z,100.00
2023-06-25T18:11:23.588Z,100.00
2023-06-25T18:13:52.406Z,100.00
2023-06-25T18:16:21.218Z,100.00
2023-06-25T18:18:51.186Z,100.00
2023-06-25T18:21:19.553Z,100.00
2023-06-25T18:23:49.345Z,100.00
2023-06-25T18:26:18.037Z,100.00
2023-06-25T18:28:46.441Z,100.00
2023-06-25T18:31:14.867Z,100.00
2023-06-25T18:33:43.173Z,100.00
2023-06-25T18:36:11.532Z,100.00
2023-06-25T18:38:39.797Z,100.00
2023-06-25T18:41:09.510Z,100.00
2023-06-25T18:43:37.822Z,100.00
2023-06-25T18:46:06.182Z,100.00
2023-06-25T18:48:34.481Z,100.00
2023-06-25T18:51:02.882Z,100.00
2023-06-25T18:53:31.305Z,100.00
2023-06-25T18:56:00.282Z,100.00
2023-06-25T18:58:30.045Z,100.00
2023-06-25T19:00:59.171Z,100.00
2023-06-25T19:03:27.911Z,100.00
2023-06-25T19:05:56.318Z,100.00
2023-06-25T19:08:24.727Z,100.00
2023-06-25T19:10:53.019Z,100.00
2023-06-25T19:13:21.365Z,100.00
2023-06-25T19:15:51.170Z,100.00
2023-06-25T19:18:19.725Z,100.00
2023-06-25T19:20:48.008Z,100.00
2023-06-25T19:23:29.370Z,100.00
2023-06-25T19:26:02.815Z,100.00
2023-06-25T19:28:31.235Z,100.00
2023-06-25T19:31:00.995Z,100.00
2023-06-25T19:33:29.422Z,100.00
2023-06-25T19:35:57.781Z,100.00
2023-06-25T19:38:26.132Z,100.00
2023-06-25T19:40:54.607Z,100.00
2023-06-25T19:43:23.005Z,100.00
2023-06-25T19:45:51.941Z,100.00
2023-06-25T19:48:21.946Z,100.00
2023-06-25T19:50:50.978Z,99.41
2023-06-25T19:53:19.273Z,99.91
2023-06-25T19:55:47.680Z,100.00
2023-06-25T19:58:16.770Z,100.00
2023-06-25T20:00:45.107Z,100.00
2023-06-25T20:03:13.441Z,100.00
2023-06-25T20:05:43.188Z,100.00
2023-06-25T20:08:11.492Z,100.00
2023-06-25T20:10:39.971Z,100.00
2023-06-25T20:13:08.601Z,100.00
2023-06-25T20:15:36.860Z,100.00
2023-06-25T20:18:05.316Z,100.00
2023-06-25T20:20:34.261Z,100.00
2023-06-25T20:23:04.213Z,100.00
2023-06-25T20:25:32.665Z,100.00
2023-06-25T20:28:00.988Z,100.00
2023-06-25T20:30:29.785Z,100.00
2023-06-25T20:32:59.121Z,100.00
2023-06-25T20:35:27.736Z,100.00
2023-06-25T20:37:55.996Z,100.00
2023-06-25T20:40:25.757Z,100.00
2023-06-25T20:42:54.104Z,100.00
2023-06-25T20:45:22.378Z,100.00
2023-06-25T20:47:50.687Z,100.00
2023-06-25T20:50:19.150Z,100.00
2023-06-25T20:52:47.421Z,100.00
2023-06-25T20:55:15.799Z,100.00
2023-06-25T20:57:45.479Z,100.00
2023-06-25T21:00:14.813Z,100.00
2023-06-25T21:02:43.202Z,100.00
2023-06-25T21:05:11.705Z,100.00
2023-06-25T21:07:40.103Z,100.00
2023-06-25T21:10:09.356Z,100.00
2023-06-25T21:12:37.803Z,100.00
2023-06-25T21:15:08.888Z,100.00
2023-06-25T21:17:37.129Z,100.00
2023-06-25T21:20:07.882Z,100.00
2023-06-25T21:22:36.593Z,100.00
2023-06-25T21:25:05.616Z,100.00
2023-06-25T21:27:33.862Z,100.00
2023-06-25T21:30:02.116Z,100.00
2023-06-25T21:32:31.909Z,100.00
2023-06-25T21:35:00.205Z,100.00
2023-06-25T21:37:28.527Z,100.00
2023-06-25T21:39:56.814Z,100.00
2023-06-25T21:42:25.135Z,100.00
2023-06-25T21:44:53.517Z,100.00
2023-06-25T21:47:21.812Z,100.00
2023-06-25T21:49:51.525Z,100.00
2023-06-25T21:52:19.839Z,100.00
2023-06-25T21:54:48.293Z,100.00
2023-06-25T21:57:16.652Z,100.00
2023-06-25T21:59:44.938Z,100.00
2023-06-25T22:02:16.330Z,100.00
2023-06-25T22:04:45.172Z,100.00
2023-06-25T22:07:14.883Z,100.00
2023-06-25T22:09:43.296Z,100.00
2023-06-25T22:12:11.920Z,100.00
2023-06-25T22:14:40.402Z,100.00
2023-06-25T22:17:08.733Z,100.00
2023-06-25T22:19:37.707Z,100.00
2023-06-25T22:22:06.387Z,100.00
2023-06-25T22:24:36.036Z,100.00
2023-06-25T22:27:04.556Z,100.00
2023-06-25T22:29:41.828Z,100.00
2023-06-25T22:32:13.150Z,100.00
2023-06-25T22:34:41.773Z,100.00
2023-06-25T22:37:10.262Z,100.00
2023-06-25T22:39:39.971Z,100.00
2023-06-25T22:42:08.953Z,100.00
2023-06-25T22:44:38.239Z,100.00
2023-06-25T22:47:06.824Z,100.00
2023-06-25T22:49:35.161Z,100.00
2023-06-25T22:52:04.278Z,100.00
2023-06-25T22:54:32.556Z,100.00
2023-06-25T22:57:02.195Z,100.00
2023-06-25T22:59:30.668Z,100.00
2023-06-25T23:01:58.993Z,100.00
2023-06-25T23:04:27.319Z,100.00
2023-06-25T23:06:55.670Z,100.00
2023-06-25T23:09:23.949Z,100.00
2023-06-25T23:11:52.312Z,100.00
2023-06-25T23:14:21.998Z,100.00
2023-06-25T23:16:50.915Z,100.00
2023-06-25T23:19:20.570Z,100.00
2023-06-25T23:21:49.532Z,100.00
2023-06-25T23:24:17.869Z,100.00
2023-06-25T23:26:48.003Z,100.00
2023-06-25T23:29:18.294Z,100.00
2023-06-25T23:31:48.311Z,100.00
2023-06-25T23:34:16.684Z,100.00
2023-06-25T23:36:44.980Z,100.00
2023-06-25T23:39:13.302Z,100.00
2023-06-25T23:41:41.592Z,100.00
2023-06-25T23:44:09.878Z,100.00
2023-06-25T23:46:38.239Z,100.00
2023-06-25T23:49:08.029Z,100.00
2023-06-25T23:51:36.392Z,100.00
2023-06-25T23:54:04.992Z,100.00
2023-06-25T23:56:34.994Z,100.00
2023-06-25T23:59:04.231Z,100.00
